Marlinton, WV

2:59 AM EST on March 06, 2015 (GMT -0500)
Ingalls | Change Station
CLOSE
Current Station
Airport
Location: Hot Springs,
Elevation: 3793 ft
Nearby Weather Stations

Elev 3793 ft 37.95 °N, 79.83 °W | Updated 24 minutes ago

Partly Cloudy
Partly Cloudy
5 °F
Feels Like -8 °F
N
8
Wind Variable Wind from WNW

Today
High -- | Low -- °F
--% Chance of Precip.
Yesterday
High -- | Low -- °F
Precip. -- in
6:45 AM 6:18 PM
Full, 100% visible
Pressure 30.15 in
Visibility 10.0 miles
Clouds Clear
Windchill -8 °F
Dew Point 3 °F
Humidity 92%
Rainfall 0.00 in
Snow Depth Not available.
UV 0 out of 12
Pollen .70 out of 12
Air Quality Not available.
Flu Activity Not available.
METAR KHSP 060735Z AUTO 30007KT 10SM CLR M15/M16 A3015 RMK AO2 T11501160

More Conditions Fewer Conditions

Pressure 30.15 in
Visibility 10.0 miles
Clouds Clear
Windchill -8 °F
Dew Point 3 °F
Humidity 92%
Rainfall 0.00 in
Snow Depth Not available.
UV 0 out of 12
Pollen .70 out of 12
Air Quality Not available.
Flu Activity Not available.
METAR KHSP 060735Z AUTO 30007KT 10SM CLR M15/M16 A3015 RMK AO2 T11501160

More Conditions Fewer Conditions

10-Day Weather Forecast

Almanac

Astronomy

Mar. 06, 2015 Rise Set
Actual Time
Civil Twilight
Nautical Twilight
Astronomical Twilight
Moon
Length of Visible Light
Length of Day
Tomorrow will be .
, % of the Moon is Illuminated

Today's Extremes

State Highs State Lows

Community

WunderPhotos

Upload Photos

1,803,199 photos uploaded!

WunderBlogs® & News

Nearby

Air Quality

  Air Quality AQ Index Pollutant
Not available.

Snow Depth

Station Depth Elevation

Earthquake Activity

City Distance Mag. Time & Date
Minimum magnitude displayed is 2.5.

Coastal Water Temperatures

Place Temperature

Nearby Weather Stations